Time;durP1;ratioP1;P1;durP2;ratioP2;P2;SDS_P1;SDS_P2;PMS_P1;PMS_P2;Temp;Humidity;BMP_temperature;BMP_pressure;BME280_temperature;BME280_humidity;BME280_pressure;Samples;Min_cycle;Max_cycle;Signal;HPM_P1;HPM_P2
2022/04/29 00:00:45;;;;;;;;;20.00;17.25;;;;;17.56;42.64;102498.03;2404241;28;45182;-80
2022/04/29 00:01:55;;;;;;;;;29.75;24.75;;;;;17.57;42.54;102501.56;2395392;28;46442;-80
2022/04/29 00:03:09;;;;;;;;;32.00;27.75;;;;;17.56;42.50;102497.19;2394766;28;45377;-79
2022/04/29 00:04:19;;;;;;;;;19.00;14.25;;;;;17.56;42.33;102494.53;2394628;28;45802;-80
2022/04/29 00:05:30;;;;;;;;;20.50;20.25;;;;;17.52;42.80;102494.66;2396090;28;45319;-80
2022/04/29 00:06:40;;;;;;;;;24.00;23.25;;;;;17.49;43.11;102494.75;2394657;28;46233;-80
2022/04/29 00:07:50;;;;;;;;;28.50;26.00;;;;;17.46;43.04;102492.19;2395225;28;44656;-80
2022/04/29 00:09:01;;;;;;;;;28.25;25.00;;;;;17.46;42.29;102494.00;2403918;28;46542;-80
2022/04/29 00:10:15;;;;;;;;;24.50;22.50;;;;;17.43;42.75;102497.63;2403931;28;45262;-79
2022/04/29 00:11:27;;;;;;;;;23.25;21.50;;;;;17.43;42.54;102490.50;2403330;28;46214;-80
2022/04/29 00:12:41;;;;;;;;;30.00;26.00;;;;;17.41;43.12;102494.13;2403599;28;45369;-80
2022/04/29 00:13:52;;;;;;;;;25.75;25.00;;;;;17.40;42.54;102487.09;2403811;28;45508;-81
2022/04/29 00:15:02;;;;;;;;;30.75;24.00;;;;;17.39;42.53;102488.00;2403436;28;45246;-81
2022/04/29 00:16:13;;;;;;;;;21.50;20.50;;;;;17.38;42.86;102487.16;2404067;28;45166;-81
2022/04/29 00:17:23;;;;;;;;;26.00;24.00;;;;;17.39;42.99;102483.56;2403385;28;45166;-82
2022/04/29 00:18:34;;;;;;;;;24.50;23.00;;;;;17.38;42.63;102486.28;2404009;28;45232;-81
2022/04/29 00:19:45;;;;;;;;;29.75;25.75;;;;;17.36;43.05;102480.16;2395006;28;45293;-81
2022/04/29 00:20:56;;;;;;;;;29.75;26.25;;;;;17.37;42.92;102485.41;2394441;28;46463;-81
2022/04/29 00:22:07;;;;;;;;;25.00;24.00;;;;;17.37;42.82;102476.56;2394593;28;45313;-81
2022/04/29 00:23:18;;;;;;;;;26.75;24.25;;;;;17.36;42.70;102478.34;2394395;28;45449;-83
2022/04/29 00:24:28;;;;;;;;;26.00;23.25;;;;;17.35;42.77;102483.72;2394545;28;45287;-81
2022/04/29 00:25:38;;;;;;;;;29.00;24.75;;;;;17.35;42.64;102484.59;2399820;28;45406;-81
2022/04/29 00:26:49;;;;;;;;;25.00;23.00;;;;;17.36;42.56;102480.16;2403349;28;45405;-80
2022/04/29 00:28:00;;;;;;;;;25.50;24.25;;;;;17.35;42.65;102476.63;2394476;28;45912;-79
2022/04/29 00:29:10;;;;;;;;;23.25;22.75;;;;;17.38;42.85;102478.31;2394448;28;45226;-79
2022/04/29 00:30:20;;;;;;;;;26.50;21.50;;;;;17.39;42.80;102474.72;2394795;28;45464;-79
2022/04/29 00:31:31;;;;;;;;;22.25;20.25;;;;;17.36;42.91;102475.69;2397528;28;45220;-79
2022/04/29 00:32:42;;;;;;;;;29.00;25.00;;;;;17.32;42.82;102476.72;2403847;28;45842;-79
2022/04/29 00:33:52;;;;;;;;;25.00;22.75;;;;;17.28;43.31;102470.66;2410455;28;45226;-79
2022/04/29 00:35:03;;;;;;;;;29.50;26.00;;;;;17.27;43.03;102468.03;2403042;28;45236;-79
2022/04/29 00:36:14;;;;;;;;;30.00;26.50;;;;;17.24;42.59;102470.78;2403953;28;45255;-79
2022/04/29 00:37:24;;;;;;;;;26.50;23.75;;;;;17.21;42.86;102466.47;2403853;28;45431;-79
2022/04/29 00:38:35;;;;;;;;;31.00;25.25;;;;;17.20;43.09;102459.41;2403681;28;45200;-79
2022/04/29 00:39:45;;;;;;;;;19.75;18.00;;;;;17.17;43.56;102468.34;2403649;28;46038;-79
2022/04/29 00:40:56;;;;;;;;;28.50;25.25;;;;;17.17;43.12;102462.16;2402781;28;45389;-79
2022/04/29 00:42:17;;;;;;;;;30.00;25.50;;;;;17.15;43.05;102458.66;2402592;28;46533;-79
2022/04/29 00:43:27;;;;;;;;;20.00;19.75;;;;;17.09;43.34;102454.41;2403720;28;45294;-78
2022/04/29 00:44:40;;;;;;;;;21.50;19.50;;;;;17.10;43.47;102459.69;2402571;28;45384;-81
2022/04/29 00:45:51;;;;;;;;;28.25;25.00;;;;;17.06;43.31;102455.38;2394563;28;44707;-80
2022/04/29 00:47:01;;;;;;;;;27.75;22.00;;;;;17.04;43.27;102451.06;2401346;28;45270;-85
2022/04/29 00:48:12;;;;;;;;;27.50;21.75;;;;;17.03;43.63;102457.28;2403440;28;45646;-85
2022/04/29 00:49:22;;;;;;;;;27.25;24.25;;;;;16.99;43.79;102457.38;2403739;28;45387;-81
2022/04/29 00:50:33;;;;;;;;;30.00;27.00;;;;;16.94;43.68;102459.31;2403896;28;45219;-80
2022/04/29 00:51:48;;;;;;;;;26.75;23.75;;;;;16.92;43.73;102452.31;2403590;28;45355;-80
2022/04/29 00:52:59;;;;;;;;;28.25;24.25;;;;;16.91;43.92;102462.09;2403175;28;45313;-80
2022/04/29 00:54:14;;;;;;;;;28.75;24.50;;;;;16.86;43.75;102458.69;2403290;28;45507;-80
2022/04/29 00:55:24;;;;;;;;;33.00;25.00;;;;;16.85;43.64;102449.00;2403568;28;44695;-80
2022/04/29 00:56:38;;;;;;;;;26.50;24.50;;;;;16.83;44.23;102454.34;2401381;28;46626;-81
2022/04/29 00:58:07;;;;;;;;;27.25;24.00;;;;;16.83;44.04;102449.03;2384418;28;45262;-80
2022/04/29 00:59:24;;;;;;;;;27.50;24.25;;;;;16.83;44.00;102449.03;2389757;28;46064;-82
2022/04/29 01:00:36;;;;;;;;;28.50;25.00;;;;;16.81;44.06;102450.00;2394564;28;45163;-82
2022/04/29 01:01:47;;;;;;;;;25.25;24.50;;;;;16.83;43.82;102456.13;2390797;28;47373;-82
2022/04/29 01:03:00;;;;;;;;;29.50;27.75;;;;;16.80;44.06;102453.56;2395835;28;44738;-82
2022/04/29 01:04:16;;;;;;;;;29.50;28.75;;;;;16.79;43.90;102450.03;2403632;28;45566;-82
2022/04/29 01:05:27;;;;;;;;;27.50;26.75;;;;;16.79;44.20;102452.69;2403277;28;44734;-82
2022/04/29 01:06:37;;;;;;;;;27.50;25.75;;;;;16.78;44.11;102450.97;2403535;28;45448;-82
2022/04/29 01:07:49;;;;;;;;;27.25;21.25;;;;;16.79;44.15;102446.53;2397208;28;45387;-82
2022/04/29 01:08:59;;;;;;;;;30.00;28.50;;;;;16.77;44.49;102443.91;2394096;28;46571;-82
2022/04/29 01:10:12;;;;;;;;;30.00;26.50;;;;;16.78;43.94;102445.66;2391899;28;44787;-81
2022/04/29 01:11:24;;;;;;;;;27.75;25.50;;;;;16.74;44.63;102441.38;2396512;28;46469;-82
2022/04/29 01:12:37;;;;;;;;;29.75;25.00;;;;;16.72;44.04;102446.72;2393512;28;45191;-82
2022/04/29 01:13:49;;;;;;;;;28.50;25.75;;;;;16.73;44.53;102444.94;2396412;28;46588;-81
2022/04/29 01:15:04;;;;;;;;;30.75;25.50;;;;;16.69;44.95;102438.84;2403623;28;44698;-81
2022/04/29 01:16:14;;;;;;;;;35.75;29.00;;;;;16.65;44.95;102437.22;2401814;28;48534;-81
2022/04/29 01:17:25;;;;;;;;;32.75;24.50;;;;;16.61;44.56;102433.81;2401703;28;44581;-79
2022/04/29 01:18:36;;;;;;;;;28.50;23.25;;;;;16.58;44.62;102436.56;2394165;28;46051;-79
2022/04/29 01:19:46;;;;;;;;;30.00;25.75;;;;;16.56;44.83;102440.16;2396950;28;44753;-80
2022/04/29 01:21:04;;;;;;;;;36.50;28.75;;;;;16.54;45.31;102434.91;2394009;28;45328;-80
2022/04/29 01:22:15;;;;;;;;;27.50;26.00;;;;;16.52;44.54;102432.28;2394182;28;45175;-80
2022/04/29 01:23:25;;;;;;;;;32.75;26.75;;;;;16.52;45.10;102439.38;2393893;28;45357;-81
2022/04/29 01:24:35;;;;;;;;;30.25;26.50;;;;;16.50;45.04;102435.91;2402000;28;46564;-81
2022/04/29 01:25:46;;;;;;;;;36.25;26.50;;;;;16.47;44.91;102434.22;2403052;28;46068;-81
2022/04/29 01:26:56;;;;;;;;;28.75;26.75;;;;;16.49;44.89;102431.53;2403638;28;45267;-81
2022/04/29 01:28:07;;;;;;;;;33.75;28.00;;;;;16.49;45.17;102431.53;2403324;28;45540;-80
2022/04/29 01:29:20;;;;;;;;;29.25;26.00;;;;;16.48;45.00;102429.78;2392596;28;45458;-79
2022/04/29 01:30:31;;;;;;;;;26.50;26.00;;;;;16.49;44.89;102434.19;2396307;28;45406;-80
2022/04/29 01:31:42;;;;;;;;;28.75;25.75;;;;;16.48;45.02;102429.78;2400043;28;45230;-80
2022/04/29 01:32:56;;;;;;;;;26.50;26.00;;;;;16.49;44.96;102427.09;2394498;28;45288;-80
2022/04/29 01:34:06;;;;;;;;;34.50;24.75;;;;;16.50;44.93;102426.16;2402696;28;45550;-79
2022/04/29 01:35:17;;;;;;;;;25.50;22.00;;;;;16.50;44.74;102425.28;2403282;28;45357;-80
2022/04/29 01:36:28;;;;;;;;;26.00;26.00;;;;;16.51;44.94;102429.69;2403527;28;44667;-80
2022/04/29 01:37:39;;;;;;;;;31.25;26.50;;;;;16.47;45.23;102426.25;2403256;28;46552;-79
2022/04/29 01:38:49;;;;;;;;;27.75;24.75;;;;;16.46;45.09;102421.88;2399853;28;44684;-79
2022/04/29 01:40:00;;;;;;;;;30.75;28.00;;;;;16.46;45.13;102426.31;2399084;28;45268;-78
2022/04/29 01:41:10;;;;;;;;;34.25;26.25;;;;;16.39;45.13;102417.69;2393213;28;45342;-78
2022/04/29 01:42:21;;;;;;;;;27.25;24.00;;;;;16.40;45.05;102430.00;2386969;28;46255;-78
2022/04/29 01:43:32;;;;;;;;;36.25;29.75;;;;;16.35;45.74;102430.16;2399786;28;45179;-78
2022/04/29 01:44:45;;;;;;;;;30.00;28.00;;;;;16.33;45.27;102429.34;2403279;28;46513;-78
2022/04/29 01:45:55;;;;;;;;;28.50;27.25;;;;;16.29;45.34;102427.72;2403626;28;44644;-78
2022/04/29 01:47:06;;;;;;;;;28.00;27.25;;;;;16.27;45.13;102430.38;2403180;28;45335;-77
2022/04/29 01:48:16;;;;;;;;;25.75;21.00;;;;;16.27;45.35;102432.19;2398709;28;45234;-77
2022/04/29 01:49:27;;;;;;;;;29.00;27.00;;;;;16.22;45.41;102429.69;2393772;28;45378;-78
2022/04/29 01:50:37;;;;;;;;;28.50;27.00;;;;;16.22;45.31;102427.03;2393986;28;45368;-80
2022/04/29 01:51:48;;;;;;;;;31.00;27.75;;;;;16.22;45.56;102435.00;2393433;28;45276;-80
2022/04/29 01:52:59;;;;;;;;;34.75;26.75;;;;;16.20;45.41;102427.06;2393755;28;45243;-80
2022/04/29 01:54:11;;;;;;;;;31.75;29.50;;;;;16.22;45.60;102434.13;2399343;28;46413;-79
2022/04/29 01:55:21;;;;;;;;;26.75;25.00;;;;;16.18;45.43;102428.91;2403285;28;44639;-80
2022/04/29 01:56:34;;;;;;;;;37.75;29.75;;;;;16.20;45.68;102426.19;2403161;28;46468;-80
2022/04/29 01:57:49;;;;;;;;;28.75;25.50;;;;;16.17;45.73;102427.13;2394624;28;45233;-80
2022/04/29 01:59:01;;;;;;;;;15.75;11.00;;;;;16.17;45.67;102429.78;2393624;28;46344;-80
2022/04/29 02:00:11;;;;;;;;;34.25;29.75;;;;;16.14;45.55;102427.25;2401695;28;44791;-80
2022/04/29 02:01:22;;;;;;;;;32.50;25.75;;;;;16.16;45.60;102429.84;2402591;28;46457;-80
2022/04/29 02:02:32;;;;;;;;;31.50;30.25;;;;;16.15;45.62;102418.38;2401494;28;44603;-80
2022/04/29 02:03:43;;;;;;;;;29.00;27.75;;;;;16.15;45.52;102433.44;2393830;28;45341;-80
2022/04/29 02:04:53;;;;;;;;;34.75;30.00;;;;;16.11;45.59;102419.38;2393856;28;45245;-80
2022/04/29 02:06:03;;;;;;;;;32.25;28.50;;;;;16.14;45.72;102423.72;2400929;28;45503;-80
2022/04/29 02:07:14;;;;;;;;;33.25;28.75;;;;;16.13;45.44;102429.94;2403297;28;45255;-80
2022/04/29 02:08:24;;;;;;;;;35.00;25.00;;;;;16.15;45.62;102428.13;2402145;28;46421;-79
2022/04/29 02:09:35;;;;;;;;;38.75;34.00;;;;;16.15;45.52;102421.00;2401786;28;45602;-78
2022/04/29 02:10:45;;;;;;;;;26.50;24.75;;;;;16.17;45.75;102418.34;2403081;28;46087;-77
2022/04/29 02:12:05;;;;;;;;;35.75;29.75;;;;;16.16;45.87;102412.16;2395915;28;44849;-78
2022/04/29 02:13:15;;;;;;;;;33.50;28.00;;;;;16.15;45.76;102426.31;2398929;28;46206;-77
2022/04/29 02:14:25;;;;;;;;;33.00;28.75;;;;;16.16;45.71;102427.19;2403226;28;44612;-77
2022/04/29 02:15:36;;;;;;;;;30.75;27.75;;;;;16.12;45.91;102421.13;2403168;28;45382;-77
2022/04/29 02:16:46;;;;;;;;;36.50;27.50;;;;;16.10;45.76;102420.28;2403135;28;45428;-77
2022/04/29 02:17:56;;;;;;;;;31.75;26.25;;;;;16.06;45.97;102429.25;2399192;28;45539;-77
2022/04/29 02:19:07;;;;;;;;;31.50;29.25;;;;;16.04;45.81;102439.00;2395677;28;44701;-77
2022/04/29 02:20:18;;;;;;;;;33.00;27.00;;;;;15.98;45.97;102438.28;2403080;28;45473;-77
2022/04/29 02:21:28;;;;;;;;;34.00;27.50;;;;;15.98;45.91;102443.56;2403072;28;45378;-77
2022/04/29 02:22:41;;;;;;;;;35.25;32.00;;;;;15.97;45.86;102439.19;2402749;28;45365;-78
2022/04/29 02:23:52;;;;;;;;;34.50;26.25;;;;;15.97;45.79;102446.28;2403009;28;45298;-79
2022/04/29 02:25:02;;;;;;;;;27.00;25.75;;;;;15.96;45.94;102453.34;2401956;28;45245;-79
2022/04/29 02:26:13;;;;;;;;;27.00;24.50;;;;;16.01;45.92;102450.56;2400450;28;44785;-78
2022/04/29 02:27:23;;;;;;;;;38.25;30.25;;;;;16.01;46.07;102441.75;2402716;28;45266;-79
2022/04/29 02:28:35;;;;;;;;;34.25;31.25;;;;;16.02;46.07;102443.50;2403189;28;45290;-79
2022/04/29 02:29:46;;;;;;;;;32.75;27.00;;;;;16.00;45.84;102440.88;2402806;28;46480;-78
2022/04/29 02:30:56;;;;;;;;;30.50;28.75;;;;;15.98;45.93;102443.56;2400385;28;45159;-77
2022/04/29 02:32:07;;;;;;;;;33.00;30.75;;;;;15.95;45.99;102438.34;2393492;28;45461;-77
2022/04/29 02:33:17;;;;;;;;;33.50;27.25;;;;;15.92;46.19;102446.41;2400383;28;45535;-77
2022/04/29 02:34:28;;;;;;;;;36.25;29.75;;;;;15.92;46.37;102443.75;2402900;28;45465;-77
2022/04/29 02:35:38;;;;;;;;;32.75;30.00;;;;;15.88;46.22;102439.44;2399707;28;45271;-78
2022/04/29 02:36:48;;;;;;;;;34.75;31.50;;;;;15.86;46.31;102431.53;2402503;28;45460;-78
2022/04/29 02:37:59;;;;;;;;;34.25;31.50;;;;;15.85;46.11;102431.59;2402993;28;45271;-77
2022/04/29 02:39:09;;;;;;;;;32.00;30.00;;;;;15.88;46.46;102447.41;2400745;28;45528;-77
2022/04/29 02:40:22;;;;;;;;;28.75;25.50;;;;;15.85;46.15;102439.56;2401687;28;45364;-77
2022/04/29 02:41:32;;;;;;;;;33.00;31.00;;;;;15.88;46.35;102442.09;2396062;28;46494;-77
2022/04/29 02:42:43;;;;;;;;;36.50;28.75;;;;;15.86;46.34;102443.91;2402999;28;45148;-77
2022/04/29 02:43:54;;;;;;;;;34.25;30.25;;;;;15.85;46.26;102439.56;2398382;28;46245;-77
2022/04/29 02:45:05;;;;;;;;;42.50;32.50;;;;;15.86;46.36;102443.91;2393763;28;45168;-77
2022/04/29 02:46:15;;;;;;;;;31.50;28.25;;;;;15.89;46.46;102449.16;2393483;28;46401;-77
2022/04/29 02:47:27;;;;;;;;;32.75;28.25;;;;;15.88;46.62;102446.53;2396959;28;45545;-77
2022/04/29 02:48:37;;;;;;;;;28.75;24.50;;;;;15.86;46.32;102446.56;2402879;28;45413;-77
2022/04/29 02:49:48;;;;;;;;;33.75;31.50;;;;;15.86;46.15;102446.56;2402974;28;45341;-77
2022/04/29 02:50:58;;;;;;;;;34.25;31.00;;;;;15.84;46.52;102448.41;2396698;28;45334;-77
2022/04/29 02:52:10;;;;;;;;;31.50;28.50;;;;;15.84;46.75;102448.41;2383414;28;45691;-77
2022/04/29 02:53:21;;;;;;;;;38.50;31.75;;;;;15.79;46.61;102450.31;2386197;28;46425;-77
2022/04/29 02:54:31;;;;;;;;;34.50;31.50;;;;;15.79;46.38;102452.97;2402199;28;45452;-79
2022/04/29 02:55:41;;;;;;;;;35.00;33.00;;;;;15.76;46.56;102443.31;2395960;28;46693;-79
2022/04/29 02:56:52;;;;;;;;;31.75;27.00;;;;;15.75;46.59;102441.59;2393520;28;45599;-78
2022/04/29 02:58:02;;;;;;;;;35.50;32.25;;;;;15.75;47.11;102446.88;2393515;28;45194;-78
2022/04/29 02:59:13;;;;;;;;;36.75;32.50;;;;;15.79;46.79;102445.00;2393399;28;45203;-78
2022/04/29 03:00:23;;;;;;;;;33.75;30.50;;;;;15.76;46.59;102443.31;2393347;28;46102;-78
2022/04/29 03:01:33;;;;;;;;;37.50;32.25;;;;;15.75;46.66;102437.13;2393456;28;44640;-78
2022/04/29 03:02:44;;;;;;;;;40.00;34.25;;;;;15.75;47.22;102445.09;2393478;28;45274;-78
2022/04/29 03:03:54;;;;;;;;;31.50;28.25;;;;;15.74;46.69;102440.72;2396459;28;45297;-78
2022/04/29 03:05:05;;;;;;;;;32.50;30.00;;;;;15.70;46.60;102439.06;2401952;28;46658;-78
2022/04/29 03:06:16;;;;;;;;;39.00;33.00;;;;;15.71;46.81;102439.91;2402928;28;45202;-79
2022/04/29 03:07:26;;;;;;;;;38.25;33.50;;;;;15.69;47.02;102442.63;2395580;28;46360;-78
2022/04/29 03:08:36;;;;;;;;;37.75;32.25;;;;;15.66;46.83;102452.41;2393162;28;44735;-79
2022/04/29 03:09:48;;;;;;;;;36.25;32.00;;;;;15.66;46.76;102448.00;2393267;28;46324;-79
2022/04/29 03:10:58;;;;;;;;;38.25;30.75;;;;;15.60;46.75;102435.81;2393472;28;45389;-78
2022/04/29 03:12:12;;;;;;;;;33.75;29.00;;;;;15.62;47.07;102441.03;2388997;28;47096;-79
2022/04/29 03:13:22;;;;;;;;;39.00;31.25;;;;;15.61;46.74;102444.59;2395993;28;45313;-79
2022/04/29 03:14:33;;;;;;;;;36.00;31.50;;;;;15.61;47.16;102448.13;2401639;28;45640;-76
2022/04/29 03:15:43;;;;;;;;;36.25;27.25;;;;;15.61;46.96;102440.16;2402691;28;45313;-76
2022/04/29 03:16:53;;;;;;;;;33.25;30.50;;;;;15.62;47.03;102441.91;2402548;28;46514;-77
2022/04/29 03:18:20;;;;;;;;;35.75;27.50;;;;;15.61;47.42;102444.59;2402596;28;44722;-76
2022/04/29 03:19:31;;;;;;;;;39.25;30.25;;;;;15.58;46.99;102437.59;2402540;28;46437;-79
2022/04/29 03:20:43;;;;;;;;;34.25;29.75;;;;;15.59;47.38;102436.69;2401652;28;45226;-77
2022/04/29 03:21:53;;;;;;;;;34.75;30.00;;;;;15.61;46.82;102434.88;2393240;28;45342;-77
2022/04/29 03:23:04;;;;;;;;;36.75;30.75;;;;;15.62;47.43;102433.97;2393148;28;45240;-78
2022/04/29 03:24:15;;;;;;;;;33.75;29.50;;;;;15.61;47.00;102434.00;2399230;28;46197;-77
2022/04/29 03:25:25;;;;;;;;;35.00;30.25;;;;;15.62;46.92;102435.75;2399161;28;44813;-77
2022/04/29 03:26:36;;;;;;;;;33.00;27.25;;;;;15.60;46.94;102434.91;2393238;28;45541;-77
2022/04/29 03:27:46;;;;;;;;;30.75;28.50;;;;;15.60;46.98;102429.63;2401832;28;45352;-78
2022/04/29 03:28:57;;;;;;;;;32.25;27.50;;;;;15.61;46.86;102426.03;2402522;28;45282;-77
2022/04/29 03:30:08;;;;;;;;;37.75;31.25;;;;;15.62;46.84;102433.09;2402009;28;45428;-78
2022/04/29 03:31:19;;;;;;;;;39.25;30.50;;;;;15.63;46.69;102429.53;2398727;28;45423;-77
2022/04/29 03:32:29;;;;;;;;;33.25;28.25;;;;;15.63;46.88;102432.19;2393301;28;44634;-77
2022/04/29 03:33:39;;;;;;;;;36.25;30.25;;;;;15.64;46.91;102436.56;2403386;28;45517;-77
2022/04/29 03:34:50;;;;;;;;;36.50;30.75;;;;;15.65;46.85;102430.38;2393111;28;45299;-77
2022/04/29 03:36:00;;;;;;;;;35.75;29.25;;;;;15.63;47.02;102434.84;2392995;28;45303;-77
2022/04/29 03:37:10;;;;;;;;;37.25;32.00;;;;;15.63;46.77;102433.03;2393409;28;45453;-77
2022/04/29 03:38:21;;;;;;;;;42.75;33.75;;;;;15.61;47.08;102426.91;2398179;28;46199;-77
2022/04/29 03:39:32;;;;;;;;;40.50;32.25;;;;;15.57;46.98;102425.28;2402663;28;45203;-77
2022/04/29 03:40:43;;;;;;;;;38.50;28.75;;;;;15.53;46.73;102423.63;2402433;28;45271;-77
2022/04/29 03:41:53;;;;;;;;;37.25;32.50;;;;;15.53;47.46;102426.28;2402675;28;45251;-77
2022/04/29 03:43:03;;;;;;;;;36.00;29.50;;;;;15.49;46.92;102419.31;2398005;28;46263;-77
2022/04/29 03:44:14;;;;;;;;;39.25;33.75;;;;;15.46;47.22;102420.25;2394226;28;45456;-77
2022/04/29 03:45:26;;;;;;;;;33.75;29.00;;;;;15.46;47.13;102420.25;2393126;28;46291;-78
2022/04/29 03:46:36;;;;;;;;;38.75;30.75;;;;;15.47;47.02;102419.34;2393139;28;45271;-78
2022/04/29 03:47:47;;;;;;;;;34.75;31.25;;;;;15.48;46.97;102420.22;2393546;28;45388;-78
2022/04/29 03:50:28;;;;;;;;;41.75;31.00;;;;;15.43;47.19;102408.88;2402395;28;45423;-78
2022/04/29 03:51:38;;;;;;;;;22.50;18.00;;;;;15.41;47.16;102409.78;2397357;28;45384;-79
2022/04/29 03:52:58;;;;;;;;;38.75;31.00;;;;;15.39;47.52;102408.94;2392791;28;46313;-78
2022/04/29 03:54:08;;;;;;;;;37.50;29.25;;;;;15.35;47.79;102402.00;2387053;28;45397;-78
2022/04/29 03:55:21;;;;;;;;;33.25;28.00;;;;;15.36;47.37;102408.19;2394189;28;45407;-78
2022/04/29 03:56:31;;;;;;;;;36.00;26.50;;;;;15.33;47.36;102400.31;2399126;28;45441;-78
2022/04/29 03:57:42;;;;;;;;;37.50;31.00;;;;;15.35;46.96;102407.31;2393046;28;45283;-78
2022/04/29 03:58:52;;;;;;;;;32.25;30.50;;;;;15.34;47.37;102394.09;2393139;28;45282;-78
2022/04/29 04:00:04;;;;;;;;;37.25;31.00;;;;;15.36;47.40;102397.59;2392984;28;45255;-77
2022/04/29 04:01:14;;;;;;;;;36.50;28.75;;;;;15.37;47.30;102399.31;2393053;28;45285;-77
2022/04/29 04:02:25;;;;;;;;;36.75;31.75;;;;;15.34;47.41;102396.72;2393084;28;46465;-77
2022/04/29 04:03:35;;;;;;;;;31.00;26.50;;;;;15.34;47.26;102394.09;2385126;28;45469;-77
2022/04/29 04:04:46;;;;;;;;;36.00;29.50;;;;;15.31;47.73;102397.69;2392383;28;46305;-77
2022/04/29 04:07:25;;;;;;;;;36.75;33.25;;;;;15.28;47.61;102389.84;2393024;28;45263;-80
2022/04/29 04:08:35;;;;;;;;;45.00;33.50;;;;;15.28;47.53;102395.97;2392813;28;45267;-79
2022/04/29 04:09:46;;;;;;;;;39.25;33.25;;;;;15.29;47.47;102394.22;2392747;28;46010;-79
2022/04/29 04:10:56;;;;;;;;;35.00;27.75;;;;;15.27;47.40;102394.25;2393071;28;44780;-80
2022/04/29 04:12:07;;;;;;;;;46.00;33.50;;;;;15.25;47.90;102389.91;2392874;28;45415;-79
2022/04/29 04:13:18;;;;;;;;;37.75;31.50;;;;;15.19;47.78;102388.28;2392977;28;45453;-80
2022/04/29 04:14:28;;;;;;;;;36.00;29.00;;;;;15.16;47.33;102396.34;2401811;28;45570;-79
2022/04/29 04:15:38;;;;;;;;;35.00;31.25;;;;;15.15;47.82;102394.56;2403204;28;45368;-80
2022/04/29 04:16:49;;;;;;;;;33.75;30.75;;;;;15.16;47.77;102393.69;2398228;28;46192;-80
2022/04/29 04:18:00;;;;;;;;;43.75;35.00;;;;;15.16;48.24;102396.34;2394637;28;45242;-80
2022/04/29 04:19:10;;;;;;;;;42.50;33.00;;;;;15.13;47.99;102401.69;2395381;28;45328;-80
2022/04/29 04:20:21;;;;;;;;;38.25;32.50;;;;;15.11;47.99;102392.94;2394632;28;45220;-80
2022/04/29 04:21:31;;;;;;;;;41.25;33.00;;;;;15.09;47.70;102392.94;2394562;28;45290;-80
2022/04/29 04:22:41;;;;;;;;;30.25;27.50;;;;;15.10;47.55;102401.75;2394388;28;45164;-79
2022/04/29 04:23:53;;;;;;;;;39.25;33.00;;;;;15.06;48.53;102396.53;2394362;28;45334;-79
2022/04/29 04:25:05;;;;;;;;;47.50;32.25;;;;;15.06;48.51;102395.69;2395557;28;45473;-79
2022/04/29 04:26:15;;;;;;;;;36.25;31.50;;;;;15.04;48.12;102395.72;2394606;28;45326;-79
2022/04/29 04:27:26;;;;;;;;;35.00;27.00;;;;;15.02;47.81;102389.59;2402378;28;45195;-79
2022/04/29 04:28:36;;;;;;;;;38.50;32.75;;;;;15.03;48.13;102394.00;2403831;28;45432;-80
2022/04/29 04:29:46;;;;;;;;;35.25;30.50;;;;;15.05;47.95;102393.94;2395429;28;45443;-79
2022/04/29 04:30:57;;;;;;;;;34.75;32.25;;;;;15.09;47.87;102397.41;2394479;28;45400;-79
2022/04/29 04:32:07;;;;;;;;;35.75;32.50;;;;;15.09;47.85;102389.44;2394419;28;44750;-79
2022/04/29 04:33:18;;;;;;;;;43.75;34.25;;;;;15.10;47.95;102396.47;2396231;28;45353;-79
2022/04/29 04:35:57;;;;;;;;;42.00;33.50;;;;;15.13;48.66;102399.06;2394488;28;45438;-79
2022/04/29 04:37:08;;;;;;;;;33.25;29.00;;;;;15.09;48.50;102397.41;2401182;28;45452;-79
2022/04/29 04:38:18;;;;;;;;;33.75;29.50;;;;;15.05;47.97;102399.25;2401549;28;45469;-79
2022/04/29 04:39:29;;;;;;;;;38.25;32.25;;;;;15.05;48.15;102404.53;2399798;28;45317;-79
2022/04/29 04:40:39;;;;;;;;;31.50;28.75;;;;;15.02;48.08;102405.47;2403476;28;46247;-79
2022/04/29 04:41:50;;;;;;;;;38.75;31.50;;;;;15.01;48.45;102401.13;2403809;28;45275;-79
2022/04/29 04:43:00;;;;;;;;;41.75;34.25;;;;;14.98;48.13;102395.00;2403695;28;45399;-80
2022/04/29 04:44:11;;;;;;;;;37.25;32.50;;;;;15.00;48.16;102399.34;2403978;28;45215;-79
2022/04/29 04:45:21;;;;;;;;;41.75;32.50;;;;;15.00;48.18;102401.13;2400827;28;46162;-78
2022/04/29 04:46:31;;;;;;;;;37.50;31.75;;;;;15.02;48.29;102405.47;2403893;28;44683;-78
2022/04/29 04:47:42;;;;;;;;;41.00;34.25;;;;;15.02;47.92;102408.13;2403781;28;46481;-78
2022/04/29 04:48:52;;;;;;;;;39.00;34.00;;;;;15.03;47.92;102409.00;2403357;28;45230;-78
2022/04/29 04:50:03;;;;;;;;;35.25;33.25;;;;;15.00;48.10;102411.72;2403662;28;46240;-78
2022/04/29 04:51:13;;;;;;;;;35.00;29.00;;;;;15.02;48.29;102410.78;2403948;28;45228;-78
2022/04/29 04:52:24;;;;;;;;;36.00;33.00;;;;;15.01;48.35;102414.34;2403569;28;45178;-78
2022/04/29 04:53:34;;;;;;;;;40.50;32.00;;;;;15.04;48.04;102406.31;2403554;28;45290;-79
2022/04/29 04:54:45;;;;;;;;;40.50;32.00;;;;;15.05;48.33;102404.53;2402759;28;45198;-79
2022/04/29 04:55:55;;;;;;;;;38.50;31.75;;;;;15.04;47.99;102403.66;2403152;28;45290;-78
2022/04/29 04:57:06;;;;;;;;;44.50;33.25;;;;;15.04;48.25;102410.72;2398597;28;46395;-78
2022/04/29 04:58:16;;;;;;;;;39.50;34.50;;;;;15.00;48.41;102409.94;2394242;28;45528;-79
2022/04/29 04:59:27;;;;;;;;;43.50;34.50;;;;;15.00;47.87;102417.91;2398874;28;45415;-79
2022/04/29 05:00:39;;;;;;;;;40.25;32.25;;;;;14.97;48.12;102415.31;2403312;28;44703;-79
2022/04/29 05:01:49;;;;;;;;;43.75;31.75;;;;;14.95;48.17;102415.38;2403673;28;45410;-79
2022/04/29 05:02:59;;;;;;;;;37.75;32.75;;;;;14.95;48.26;102419.78;2403701;28;45482;-79
2022/04/29 05:04:10;;;;;;;;;43.50;33.50;;;;;14.94;48.35;102415.38;2394259;28;46301;-79
2022/04/29 05:05:20;;;;;;;;;39.75;32.00;;;;;14.95;48.29;102419.78;2394301;28;45248;-79
2022/04/29 05:06:31;;;;;;;;;38.00;31.25;;;;;14.96;48.33;102418.88;2394179;28;45416;-79
2022/04/29 05:07:41;;;;;;;;;34.75;30.00;;;;;14.98;48.28;102414.41;2397871;28;44753;-79
2022/04/29 05:08:52;;;;;;;;;33.25;31.25;;;;;15.01;48.04;102418.78;2403358;28;46412;-80
2022/04/29 05:10:02;;;;;;;;;37.50;33.00;;;;;15.01;48.16;102418.78;2403223;28;45218;-79
2022/04/29 05:11:13;;;;;;;;;35.75;32.50;;;;;15.02;48.13;102418.72;2403491;28;45390;-79
2022/04/29 05:12:23;;;;;;;;;35.25;29.00;;;;;15.02;48.19;102421.38;2400859;28;45185;-79
2022/04/29 05:13:33;;;;;;;;;36.75;33.50;;;;;15.00;48.28;102420.53;2394052;28;46434;-79
2022/04/29 05:14:44;;;;;;;;;40.00;33.75;;;;;14.98;48.43;102426.78;2394188;28;44752;-79
2022/04/29 05:15:54;;;;;;;;;42.25;33.25;;;;;14.98;48.13;102422.38;2394022;28;45262;-80
2022/04/29 05:17:04;;;;;;;;;34.75;31.75;;;;;14.97;48.13;102428.56;2394204;28;45232;-80
2022/04/29 05:18:16;;;;;;;;;37.75;29.50;;;;;14.97;48.29;102425.91;2394103;28;45550;-81
2022/04/29 05:19:26;;;;;;;;;37.75;30.00;;;;;14.99;47.68;102433.81;2397261;28;45266;-83
2022/04/29 05:20:36;;;;;;;;;38.75;32.00;;;;;14.95;48.42;102428.59;2403470;28;46512;-83
2022/04/29 05:21:47;;;;;;;;;39.75;33.00;;;;;14.95;48.38;102427.72;2395943;28;45207;-83
2022/04/29 05:22:57;;;;;;;;;38.75;33.50;;;;;14.94;48.28;102431.25;2393753;28;46361;-83
2022/04/29 05:24:07;;;;;;;;;43.50;33.25;;;;;14.92;48.11;102430.44;2394143;28;45231;-83
2022/04/29 05:25:18;;;;;;;;;35.00;32.00;;;;;14.88;48.06;102434.06;2397144;28;46353;-82
2022/04/29 05:26:28;;;;;;;;;37.50;32.50;;;;;14.87;48.74;102432.31;2387164;28;45370;-79
2022/04/29 05:27:39;;;;;;;;;40.00;31.50;;;;;14.84;48.18;102433.25;2393253;28;45392;-79